sensor_id;sensor_type;location;lat;lon;timestamp;P1;durP1;ratioP1;P2;durP2;ratioP2
39442;SDS011;25147;52.142;9.960;2024-03-02T00:00:18;24.13;;;18.73;;
39442;SDS011;25147;52.142;9.960;2024-03-02T00:02:47;24.33;;;17.60;;
39442;SDS011;25147;52.142;9.960;2024-03-02T00:05:15;23.95;;;17.98;;
39442;SDS011;25147;52.142;9.960;2024-03-02T00:07:43;27.80;;;19.45;;
39442;SDS011;25147;52.142;9.960;2024-03-02T00:10:12;23.38;;;18.38;;
39442;SDS011;25147;52.142;9.960;2024-03-02T00:12:43;23.30;;;17.48;;
39442;SDS011;25147;52.142;9.960;2024-03-02T00:15:22;26.40;;;19.13;;
39442;SDS011;25147;52.142;9.960;2024-03-02T00:18:04;25.20;;;17.60;;
39442;SDS011;25147;52.142;9.960;2024-03-02T00:20:31;25.00;;;19.08;;
39442;SDS011;25147;52.142;9.960;2024-03-02T00:22:59;24.45;;;18.35;;
39442;SDS011;25147;52.142;9.960;2024-03-02T00:25:34;21.25;;;16.80;;
39442;SDS011;25147;52.142;9.960;2024-03-02T00:28:10;24.13;;;18.02;;
39442;SDS011;25147;52.142;9.960;2024-03-02T00:30:58;23.77;;;17.75;;
39442;SDS011;25147;52.142;9.960;2024-03-02T00:33:26;26.80;;;18.33;;
39442;SDS011;25147;52.142;9.960;2024-03-02T00:35:54;25.10;;;18.45;;
39442;SDS011;25147;52.142;9.960;2024-03-02T00:38:21;25.42;;;17.95;;
39442;SDS011;25147;52.142;9.960;2024-03-02T00:40:48;23.52;;;18.02;;
39442;SDS011;25147;52.142;9.960;2024-03-02T00:43:33;24.45;;;17.58;;
39442;SDS011;25147;52.142;9.960;2024-03-02T00:46:18;20.42;;;16.55;;
39442;SDS011;25147;52.142;9.960;2024-03-02T00:48:48;23.65;;;17.63;;
39442;SDS011;25147;52.142;9.960;2024-03-02T00:51:21;23.92;;;17.92;;
39442;SDS011;25147;52.142;9.960;2024-03-02T00:53:48;25.73;;;18.42;;
39442;SDS011;25147;52.142;9.960;2024-03-02T00:56:16;22.73;;;17.00;;
39442;SDS011;25147;52.142;9.960;2024-03-02T00:58:42;21.33;;;16.83;;
39442;SDS011;25147;52.142;9.960;2024-03-02T01:01:09;23.33;;;18.30;;
39442;SDS011;25147;52.142;9.960;2024-03-02T01:03:38;21.98;;;17.80;;
39442;SDS011;25147;52.142;9.960;2024-03-02T01:06:04;23.85;;;18.38;;
39442;SDS011;25147;52.142;9.960;2024-03-02T01:08:32;22.00;;;17.67;;
39442;SDS011;25147;52.142;9.960;2024-03-02T01:11:00;23.20;;;18.52;;
39442;SDS011;25147;52.142;9.960;2024-03-02T01:13:27;22.88;;;17.65;;
39442;SDS011;25147;52.142;9.960;2024-03-02T01:15:53;24.77;;;17.80;;
39442;SDS011;25147;52.142;9.960;2024-03-02T01:18:20;23.20;;;17.60;;
39442;SDS011;25147;52.142;9.960;2024-03-02T01:20:49;25.33;;;18.25;;
39442;SDS011;25147;52.142;9.960;2024-03-02T01:23:18;24.92;;;17.48;;
39442;SDS011;25147;52.142;9.960;2024-03-02T01:25:45;24.25;;;17.70;;
39442;SDS011;25147;52.142;9.960;2024-03-02T01:28:12;22.95;;;17.70;;
39442;SDS011;25147;52.142;9.960;2024-03-02T01:30:39;23.75;;;17.95;;
39442;SDS011;25147;52.142;9.960;2024-03-02T01:33:06;25.52;;;19.88;;
39442;SDS011;25147;52.142;9.960;2024-03-02T01:35:33;24.13;;;18.35;;
39442;SDS011;25147;52.142;9.960;2024-03-02T01:38:01;21.83;;;17.45;;
39442;SDS011;25147;52.142;9.960;2024-03-02T01:40:28;24.45;;;18.90;;
39442;SDS011;25147;52.142;9.960;2024-03-02T01:42:55;24.42;;;18.92;;
39442;SDS011;25147;52.142;9.960;2024-03-02T01:45:23;23.70;;;17.42;;
39442;SDS011;25147;52.142;9.960;2024-03-02T01:47:50;23.67;;;18.63;;
39442;SDS011;25147;52.142;9.960;2024-03-02T01:50:24;23.05;;;17.92;;
39442;SDS011;25147;52.142;9.960;2024-03-02T01:52:52;23.15;;;18.30;;
39442;SDS011;25147;52.142;9.960;2024-03-02T01:55:21;25.83;;;19.05;;
39442;SDS011;25147;52.142;9.960;2024-03-02T01:57:48;25.92;;;18.88;;
39442;SDS011;25147;52.142;9.960;2024-03-02T02:00:16;23.92;;;18.10;;
39442;SDS011;25147;52.142;9.960;2024-03-02T02:02:43;22.95;;;18.48;;
39442;SDS011;25147;52.142;9.960;2024-03-02T02:05:10;24.15;;;18.05;;
39442;SDS011;25147;52.142;9.960;2024-03-02T02:07:37;26.98;;;18.52;;
39442;SDS011;25147;52.142;9.960;2024-03-02T02:10:04;25.35;;;18.27;;
39442;SDS011;25147;52.142;9.960;2024-03-02T02:12:33;23.60;;;17.85;;
39442;SDS011;25147;52.142;9.960;2024-03-02T02:15:00;24.42;;;18.83;;
39442;SDS011;25147;52.142;9.960;2024-03-02T02:17:27;23.58;;;18.42;;
39442;SDS011;25147;52.142;9.960;2024-03-02T02:19:53;24.40;;;19.05;;
39442;SDS011;25147;52.142;9.960;2024-03-02T02:22:21;27.15;;;19.45;;
39442;SDS011;25147;52.142;9.960;2024-03-02T02:24:48;23.80;;;18.65;;
39442;SDS011;25147;52.142;9.960;2024-03-02T02:27:15;26.67;;;19.27;;
39442;SDS011;25147;52.142;9.960;2024-03-02T02:29:42;22.88;;;18.35;;
39442;SDS011;25147;52.142;9.960;2024-03-02T02:32:08;25.58;;;18.42;;
39442;SDS011;25147;52.142;9.960;2024-03-02T02:34:35;25.83;;;18.70;;
39442;SDS011;25147;52.142;9.960;2024-03-02T02:37:02;26.65;;;19.38;;
39442;SDS011;25147;52.142;9.960;2024-03-02T02:39:31;25.60;;;20.00;;
39442;SDS011;25147;52.142;9.960;2024-03-02T02:41:57;25.75;;;19.05;;
39442;SDS011;25147;52.142;9.960;2024-03-02T02:44:26;28.08;;;20.10;;
39442;SDS011;25147;52.142;9.960;2024-03-02T02:46:53;27.90;;;19.00;;
39442;SDS011;25147;52.142;9.960;2024-03-02T02:49:20;23.95;;;18.00;;
39442;SDS011;25147;52.142;9.960;2024-03-02T02:51:47;27.80;;;19.95;;
39442;SDS011;25147;52.142;9.960;2024-03-02T02:54:13;25.75;;;19.13;;
39442;SDS011;25147;52.142;9.960;2024-03-02T02:56:42;26.30;;;19.08;;
39442;SDS011;25147;52.142;9.960;2024-03-02T02:59:08;26.30;;;19.60;;
39442;SDS011;25147;52.142;9.960;2024-03-02T03:01:35;25.08;;;18.70;;
39442;SDS011;25147;52.142;9.960;2024-03-02T03:04:02;24.80;;;19.08;;
39442;SDS011;25147;52.142;9.960;2024-03-02T03:06:29;24.67;;;18.70;;
39442;SDS011;25147;52.142;9.960;2024-03-02T03:08:56;25.70;;;18.65;;
39442;SDS011;25147;52.142;9.960;2024-03-02T03:11:22;22.58;;;18.13;;
39442;SDS011;25147;52.142;9.960;2024-03-02T03:13:53;26.50;;;20.77;;
39442;SDS011;25147;52.142;9.960;2024-03-02T03:16:20;27.02;;;20.38;;
39442;SDS011;25147;52.142;9.960;2024-03-02T03:18:47;29.73;;;19.50;;
39442;SDS011;25147;52.142;9.960;2024-03-02T03:21:16;27.17;;;19.73;;
39442;SDS011;25147;52.142;9.960;2024-03-02T03:23:43;26.92;;;19.13;;
39442;SDS011;25147;52.142;9.960;2024-03-02T03:26:10;25.77;;;19.77;;
39442;SDS011;25147;52.142;9.960;2024-03-02T03:28:37;28.85;;;19.52;;
39442;SDS011;25147;52.142;9.960;2024-03-02T03:31:05;23.77;;;18.17;;
39442;SDS011;25147;52.142;9.960;2024-03-02T03:33:32;30.40;;;19.27;;
39442;SDS011;25147;52.142;9.960;2024-03-02T03:35:59;24.42;;;17.95;;
39442;SDS011;25147;52.142;9.960;2024-03-02T03:38:28;25.13;;;17.83;;
39442;SDS011;25147;52.142;9.960;2024-03-02T03:40:55;23.33;;;18.30;;
39442;SDS011;25147;52.142;9.960;2024-03-02T03:43:22;26.33;;;17.55;;
39442;SDS011;25147;52.142;9.960;2024-03-02T03:45:49;26.00;;;18.73;;
39442;SDS011;25147;52.142;9.960;2024-03-02T03:48:17;23.20;;;17.75;;
39442;SDS011;25147;52.142;9.960;2024-03-02T03:50:44;23.98;;;16.88;;
39442;SDS011;25147;52.142;9.960;2024-03-02T03:53:10;23.83;;;18.13;;
39442;SDS011;25147;52.142;9.960;2024-03-02T03:55:37;22.65;;;17.83;;
39442;SDS011;25147;52.142;9.960;2024-03-02T03:58:04;24.55;;;17.77;;
39442;SDS011;25147;52.142;9.960;2024-03-02T04:00:31;24.13;;;18.08;;
39442;SDS011;25147;52.142;9.960;2024-03-02T04:02:57;22.95;;;16.75;;
39442;SDS011;25147;52.142;9.960;2024-03-02T04:05:26;24.58;;;18.33;;
39442;SDS011;25147;52.142;9.960;2024-03-02T04:07:52;24.70;;;18.15;;
39442;SDS011;25147;52.142;9.960;2024-03-02T04:10:19;25.35;;;17.67;;
39442;SDS011;25147;52.142;9.960;2024-03-02T04:12:46;23.88;;;18.05;;
39442;SDS011;25147;52.142;9.960;2024-03-02T04:15:13;20.40;;;16.83;;
39442;SDS011;25147;52.142;9.960;2024-03-02T04:17:40;25.02;;;18.60;;
39442;SDS011;25147;52.142;9.960;2024-03-02T04:20:07;24.40;;;18.35;;
39442;SDS011;25147;52.142;9.960;2024-03-02T04:22:35;24.55;;;18.75;;
39442;SDS011;25147;52.142;9.960;2024-03-02T04:25:02;27.25;;;19.85;;
39442;SDS011;25147;52.142;9.960;2024-03-02T04:27:30;25.00;;;18.38;;
39442;SDS011;25147;52.142;9.960;2024-03-02T04:29:58;25.42;;;19.13;;
39442;SDS011;25147;52.142;9.960;2024-03-02T04:32:25;26.25;;;19.67;;
39442;SDS011;25147;52.142;9.960;2024-03-02T04:34:52;25.10;;;18.48;;
39442;SDS011;25147;52.142;9.960;2024-03-02T04:37:19;26.02;;;19.77;;
39442;SDS011;25147;52.142;9.960;2024-03-02T04:39:47;26.05;;;19.00;;
39442;SDS011;25147;52.142;9.960;2024-03-02T04:42:14;24.13;;;18.20;;
39442;SDS011;25147;52.142;9.960;2024-03-02T04:44:40;25.95;;;19.30;;
39442;SDS011;25147;52.142;9.960;2024-03-02T04:47:07;26.52;;;19.38;;
39442;SDS011;25147;52.142;9.960;2024-03-02T04:49:34;24.67;;;18.88;;
39442;SDS011;25147;52.142;9.960;2024-03-02T04:52:01;26.15;;;19.02;;
39442;SDS011;25147;52.142;9.960;2024-03-02T04:54:28;25.90;;;19.50;;
39442;SDS011;25147;52.142;9.960;2024-03-02T04:56:56;26.63;;;19.40;;
39442;SDS011;25147;52.142;9.960;2024-03-02T04:59:22;26.67;;;19.45;;
39442;SDS011;25147;52.142;9.960;2024-03-02T05:01:49;25.13;;;19.40;;
39442;SDS011;25147;52.142;9.960;2024-03-02T05:04:16;26.08;;;20.15;;
39442;SDS011;25147;52.142;9.960;2024-03-02T05:06:43;29.83;;;20.67;;
39442;SDS011;25147;52.142;9.960;2024-03-02T05:09:16;26.08;;;19.58;;
39442;SDS011;25147;52.142;9.960;2024-03-02T05:11:42;29.08;;;20.23;;
39442;SDS011;25147;52.142;9.960;2024-03-02T05:14:26;26.60;;;20.15;;
39442;SDS011;25147;52.142;9.960;2024-03-02T05:16:54;23.52;;;18.75;;
39442;SDS011;25147;52.142;9.960;2024-03-02T05:19:20;24.38;;;19.50;;
39442;SDS011;25147;52.142;9.960;2024-03-02T05:21:47;24.92;;;20.15;;
39442;SDS011;25147;52.142;9.960;2024-03-02T05:24:15;27.73;;;19.92;;
39442;SDS011;25147;52.142;9.960;2024-03-02T05:26:41;30.00;;;20.45;;
39442;SDS011;25147;52.142;9.960;2024-03-02T05:29:08;24.38;;;18.25;;
39442;SDS011;25147;52.142;9.960;2024-03-02T05:31:36;27.85;;;20.67;;
39442;SDS011;25147;52.142;9.960;2024-03-02T05:34:02;26.08;;;19.00;;
39442;SDS011;25147;52.142;9.960;2024-03-02T05:36:30;27.10;;;20.92;;
39442;SDS011;25147;52.142;9.960;2024-03-02T05:38:57;28.83;;;19.25;;
39442;SDS011;25147;52.142;9.960;2024-03-02T05:41:24;26.33;;;19.13;;
39442;SDS011;25147;52.142;9.960;2024-03-02T05:43:51;23.70;;;17.60;;
39442;SDS011;25147;52.142;9.960;2024-03-02T05:46:17;27.02;;;19.30;;
39442;SDS011;25147;52.142;9.960;2024-03-02T05:48:45;27.98;;;19.90;;
39442;SDS011;25147;52.142;9.960;2024-03-02T05:51:12;25.10;;;18.77;;
39442;SDS011;25147;52.142;9.960;2024-03-02T05:53:39;24.92;;;18.77;;
39442;SDS011;25147;52.142;9.960;2024-03-02T05:56:06;25.42;;;18.70;;
39442;SDS011;25147;52.142;9.960;2024-03-02T05:58:33;25.10;;;19.35;;
39442;SDS011;25147;52.142;9.960;2024-03-02T06:01:13;25.33;;;19.70;;
39442;SDS011;25147;52.142;9.960;2024-03-02T06:03:40;24.60;;;19.10;;
39442;SDS011;25147;52.142;9.960;2024-03-02T06:06:08;27.15;;;19.10;;
39442;SDS011;25147;52.142;9.960;2024-03-02T06:08:35;25.42;;;18.13;;
39442;SDS011;25147;52.142;9.960;2024-03-02T06:11:02;27.40;;;18.73;;
39442;SDS011;25147;52.142;9.960;2024-03-02T06:13:29;22.92;;;17.85;;
39442;SDS011;25147;52.142;9.960;2024-03-02T06:15:56;21.85;;;16.75;;
39442;SDS011;25147;52.142;9.960;2024-03-02T06:18:23;23.05;;;18.27;;
39442;SDS011;25147;52.142;9.960;2024-03-02T06:20:50;23.48;;;17.88;;
39442;SDS011;25147;52.142;9.960;2024-03-02T06:23:18;22.95;;;17.90;;
39442;SDS011;25147;52.142;9.960;2024-03-02T06:25:45;24.55;;;18.25;;
39442;SDS011;25147;52.142;9.960;2024-03-02T06:28:15;28.15;;;18.35;;
39442;SDS011;25147;52.142;9.960;2024-03-02T06:30:41;23.73;;;18.08;;
39442;SDS011;25147;52.142;9.960;2024-03-02T06:33:08;26.20;;;19.92;;
39442;SDS011;25147;52.142;9.960;2024-03-02T06:35:35;26.52;;;18.13;;
39442;SDS011;25147;52.142;9.960;2024-03-02T06:38:02;24.83;;;18.48;;
39442;SDS011;25147;52.142;9.960;2024-03-02T06:40:30;23.85;;;18.00;;
39442;SDS011;25147;52.142;9.960;2024-03-02T06:42:57;25.13;;;18.10;;
39442;SDS011;25147;52.142;9.960;2024-03-02T06:45:24;24.63;;;18.88;;
39442;SDS011;25147;52.142;9.960;2024-03-02T06:47:50;24.20;;;18.83;;
39442;SDS011;25147;52.142;9.960;2024-03-02T06:50:17;24.40;;;18.63;;
39442;SDS011;25147;52.142;9.960;2024-03-02T06:52:44;24.65;;;18.05;;
39442;SDS011;25147;52.142;9.960;2024-03-02T06:55:11;24.27;;;18.20;;
39442;SDS011;25147;52.142;9.960;2024-03-02T06:57:39;27.50;;;18.80;;
39442;SDS011;25147;52.142;9.960;2024-03-02T07:00:06;21.80;;;17.02;;
39442;SDS011;25147;52.142;9.960;2024-03-02T07:02:34;21.58;;;17.73;;
39442;SDS011;25147;52.142;9.960;2024-03-02T07:05:02;24.58;;;18.38;;
39442;SDS011;25147;52.142;9.960;2024-03-02T07:07:30;26.80;;;17.88;;
39442;SDS011;25147;52.142;9.960;2024-03-02T07:09:57;25.25;;;18.38;;
39442;SDS011;25147;52.142;9.960;2024-03-02T07:12:23;23.27;;;18.05;;
39442;SDS011;25147;52.142;9.960;2024-03-02T07:14:52;24.13;;;17.35;;
39442;SDS011;25147;52.142;9.960;2024-03-02T07:17:50;27.77;;;19.38;;
39442;SDS011;25147;52.142;9.960;2024-03-02T07:20:17;24.67;;;18.08;;
39442;SDS011;25147;52.142;9.960;2024-03-02T07:22:44;22.08;;;17.73;;
39442;SDS011;25147;52.142;9.960;2024-03-02T07:25:11;26.77;;;18.25;;
39442;SDS011;25147;52.142;9.960;2024-03-02T07:27:38;24.55;;;18.02;;
39442;SDS011;25147;52.142;9.960;2024-03-02T07:30:07;26.83;;;18.67;;
39442;SDS011;25147;52.142;9.960;2024-03-02T07:32:34;23.92;;;18.20;;
39442;SDS011;25147;52.142;9.960;2024-03-02T07:35:01;24.33;;;17.17;;
39442;SDS011;25147;52.142;9.960;2024-03-02T07:37:28;22.20;;;16.80;;
39442;SDS011;25147;52.142;9.960;2024-03-02T07:39:55;24.17;;;17.35;;
39442;SDS011;25147;52.142;9.960;2024-03-02T07:42:22;23.75;;;17.45;;
39442;SDS011;25147;52.142;9.960;2024-03-02T07:44:49;23.38;;;17.92;;
39442;SDS011;25147;52.142;9.960;2024-03-02T07:47:18;23.27;;;17.90;;
39442;SDS011;25147;52.142;9.960;2024-03-02T07:49:45;25.92;;;19.08;;
39442;SDS011;25147;52.142;9.960;2024-03-02T07:52:12;24.83;;;18.05;;
39442;SDS011;25147;52.142;9.960;2024-03-02T07:54:39;23.80;;;17.88;;
39442;SDS011;25147;52.142;9.960;2024-03-02T07:57:05;23.15;;;17.88;;
39442;SDS011;25147;52.142;9.960;2024-03-02T07:59:32;22.85;;;17.33;;
39442;SDS011;25147;52.142;9.960;2024-03-02T08:01:59;23.73;;;16.90;;
39442;SDS011;25147;52.142;9.960;2024-03-02T08:04:27;23.02;;;17.25;;
39442;SDS011;25147;52.142;9.960;2024-03-02T08:06:54;22.75;;;17.55;;
39442;SDS011;25147;52.142;9.960;2024-03-02T08:09:21;20.90;;;16.05;;
39442;SDS011;25147;52.142;9.960;2024-03-02T08:11:47;24.65;;;16.63;;
39442;SDS011;25147;52.142;9.960;2024-03-02T08:14:14;21.45;;;16.60;;
39442;SDS011;25147;52.142;9.960;2024-03-02T08:16:41;22.15;;;16.30;;
39442;SDS011;25147;52.142;9.960;2024-03-02T08:19:08;21.45;;;16.10;;
39442;SDS011;25147;52.142;9.960;2024-03-02T08:21:37;20.75;;;16.95;;
39442;SDS011;25147;52.142;9.960;2024-03-02T08:24:04;22.02;;;16.52;;
39442;SDS011;25147;52.142;9.960;2024-03-02T08:26:31;23.23;;;16.67;;
39442;SDS011;25147;52.142;9.960;2024-03-02T08:28:59;23.52;;;17.42;;
39442;SDS011;25147;52.142;9.960;2024-03-02T08:31:27;23.48;;;16.70;;
39442;SDS011;25147;52.142;9.960;2024-03-02T08:33:53;22.23;;;16.15;;
39442;SDS011;25147;52.142;9.960;2024-03-02T08:36:20;23.73;;;16.90;;
39442;SDS011;25147;52.142;9.960;2024-03-02T08:38:49;22.95;;;16.35;;
39442;SDS011;25147;52.142;9.960;2024-03-02T08:41:16;20.65;;;16.50;;
39442;SDS011;25147;52.142;9.960;2024-03-02T08:43:43;24.88;;;17.42;;
39442;SDS011;25147;52.142;9.960;2024-03-02T08:46:10;21.00;;;16.48;;
39442;SDS011;25147;52.142;9.960;2024-03-02T08:48:37;20.63;;;16.02;;
39442;SDS011;25147;52.142;9.960;2024-03-02T08:51:04;21.02;;;15.95;;
39442;SDS011;25147;52.142;9.960;2024-03-02T08:53:33;20.75;;;15.13;;
39442;SDS011;25147;52.142;9.960;2024-03-02T08:56:01;18.50;;;15.02;;
39442;SDS011;25147;52.142;9.960;2024-03-02T08:58:30;20.83;;;15.32;;
39442;SDS011;25147;52.142;9.960;2024-03-02T09:00:58;20.10;;;14.63;;
39442;SDS011;25147;52.142;9.960;2024-03-02T09:03:24;19.05;;;14.10;;
39442;SDS011;25147;52.142;9.960;2024-03-02T09:05:51;19.90;;;14.88;;
39442;SDS011;25147;52.142;9.960;2024-03-02T09:08:18;19.88;;;15.30;;
39442;SDS011;25147;52.142;9.960;2024-03-02T09:10:45;18.67;;;14.80;;
39442;SDS011;25147;52.142;9.960;2024-03-02T09:13:13;20.92;;;16.40;;
39442;SDS011;25147;52.142;9.960;2024-03-02T09:15:40;19.10;;;15.48;;
39442;SDS011;25147;52.142;9.960;2024-03-02T09:18:08;20.63;;;15.65;;
39442;SDS011;25147;52.142;9.960;2024-03-02T09:20:35;20.70;;;15.60;;
39442;SDS011;25147;52.142;9.960;2024-03-02T09:23:02;19.15;;;15.20;;
39442;SDS011;25147;52.142;9.960;2024-03-02T09:25:27;18.55;;;14.70;;
39442;SDS011;25147;52.142;9.960;2024-03-02T09:27:54;16.83;;;13.70;;
39442;SDS011;25147;52.142;9.960;2024-03-02T09:30:23;17.83;;;14.43;;
39442;SDS011;25147;52.142;9.960;2024-03-02T09:32:50;17.63;;;13.32;;
39442;SDS011;25147;52.142;9.960;2024-03-02T09:35:16;18.73;;;14.82;;
39442;SDS011;25147;52.142;9.960;2024-03-02T09:37:43;16.20;;;13.48;;
39442;SDS011;25147;52.142;9.960;2024-03-02T09:40:10;16.52;;;13.50;;
39442;SDS011;25147;52.142;9.960;2024-03-02T09:42:37;19.35;;;13.23;;
39442;SDS011;25147;52.142;9.960;2024-03-02T09:45:05;15.95;;;13.32;;
39442;SDS011;25147;52.142;9.960;2024-03-02T09:47:34;17.88;;;13.68;;
39442;SDS011;25147;52.142;9.960;2024-03-02T09:50:01;17.17;;;13.55;;
39442;SDS011;25147;52.142;9.960;2024-03-02T09:52:29;15.10;;;12.05;;
39442;SDS011;25147;52.142;9.960;2024-03-02T09:54:56;19.30;;;13.05;;
39442;SDS011;25147;52.142;9.960;2024-03-02T09:57:23;15.70;;;11.95;;
39442;SDS011;25147;52.142;9.960;2024-03-02T09:59:50;17.75;;;13.02;;
39442;SDS011;25147;52.142;9.960;2024-03-02T10:02:17;16.02;;;12.95;;
39442;SDS011;25147;52.142;9.960;2024-03-02T10:04:45;16.13;;;12.98;;
39442;SDS011;25147;52.142;9.960;2024-03-02T10:07:16;15.00;;;11.57;;
39442;SDS011;25147;52.142;9.960;2024-03-02T10:09:44;16.15;;;12.80;;
39442;SDS011;25147;52.142;9.960;2024-03-02T10:12:13;14.00;;;11.90;;
39442;SDS011;25147;52.142;9.960;2024-03-02T10:14:41;14.77;;;12.35;;
39442;SDS011;25147;52.142;9.960;2024-03-02T10:17:09;14.80;;;12.10;;
39442;SDS011;25147;52.142;9.960;2024-03-02T10:19:37;15.63;;;10.90;;
39442;SDS011;25147;52.142;9.960;2024-03-02T10:22:07;13.73;;;11.43;;
39442;SDS011;25147;52.142;9.960;2024-03-02T10:24:35;15.88;;;11.07;;
39442;SDS011;25147;52.142;9.960;2024-03-02T10:27:08;14.93;;;11.23;;
39442;SDS011;25147;52.142;9.960;2024-03-02T10:29:37;13.88;;;10.80;;
39442;SDS011;25147;52.142;9.960;2024-03-02T10:32:05;13.82;;;11.00;;
39442;SDS011;25147;52.142;9.960;2024-03-02T10:34:32;17.00;;;11.50;;
39442;SDS011;25147;52.142;9.960;2024-03-02T10:36:59;16.85;;;10.88;;
39442;SDS011;25147;52.142;9.960;2024-03-02T10:39:28;15.82;;;11.88;;
39442;SDS011;25147;52.142;9.960;2024-03-02T10:41:56;13.38;;;11.00;;
39442;SDS011;25147;52.142;9.960;2024-03-02T10:44:24;15.20;;;11.20;;
39442;SDS011;25147;52.142;9.960;2024-03-02T10:46:52;13.65;;;11.15;;
39442;SDS011;25147;52.142;9.960;2024-03-02T10:49:22;14.75;;;11.68;;
39442;SDS011;25147;52.142;9.960;2024-03-02T10:51:50;12.48;;;10.25;;
39442;SDS011;25147;52.142;9.960;2024-03-02T10:54:17;11.88;;;10.50;;
39442;SDS011;25147;52.142;9.960;2024-03-02T10:56:52;14.15;;;11.23;;
39442;SDS011;25147;52.142;9.960;2024-03-02T10:59:21;13.90;;;10.68;;
39442;SDS011;25147;52.142;9.960;2024-03-02T11:01:53;12.95;;;9.95;;
39442;SDS011;25147;52.142;9.960;2024-03-02T11:04:24;11.00;;;8.93;;
39442;SDS011;25147;52.142;9.960;2024-03-02T11:06:52;11.27;;;8.55;;
39442;SDS011;25147;52.142;9.960;2024-03-02T11:09:23;11.50;;;9.65;;
39442;SDS011;25147;52.142;9.960;2024-03-02T11:11:56;11.27;;;9.30;;
39442;SDS011;25147;52.142;9.960;2024-03-02T11:14:29;11.82;;;9.15;;
39442;SDS011;25147;52.142;9.960;2024-03-02T11:17:01;11.75;;;9.93;;
39442;SDS011;25147;52.142;9.960;2024-03-02T11:19:30;13.10;;;9.65;;
39442;SDS011;25147;52.142;9.960;2024-03-02T11:21:58;12.35;;;9.50;;
39442;SDS011;25147;52.142;9.960;2024-03-02T11:24:30;10.55;;;8.98;;
39442;SDS011;25147;52.142;9.960;2024-03-02T11:27:03;10.85;;;9.10;;
39442;SDS011;25147;52.142;9.960;2024-03-02T11:29:42;11.70;;;8.90;;
39442;SDS011;25147;52.142;9.960;2024-03-02T11:32:12;12.02;;;8.93;;
39442;SDS011;25147;52.142;9.960;2024-03-02T11:34:41;10.50;;;8.50;;
39442;SDS011;25147;52.142;9.960;2024-03-02T11:37:12;10.98;;;8.80;;
39442;SDS011;25147;52.142;9.960;2024-03-02T11:39:40;11.70;;;8.80;;
39442;SDS011;25147;52.142;9.960;2024-03-02T11:42:08;11.95;;;8.70;;
39442;SDS011;25147;52.142;9.960;2024-03-02T11:44:36;14.13;;;9.32;;
39442;SDS011;25147;52.142;9.960;2024-03-02T11:47:05;10.82;;;8.88;;
39442;SDS011;25147;52.142;9.960;2024-03-02T11:49:36;9.63;;;8.70;;
39442;SDS011;25147;52.142;9.960;2024-03-02T11:52:05;12.02;;;8.55;;
39442;SDS011;25147;52.142;9.960;2024-03-02T11:54:34;10.68;;;9.00;;
39442;SDS011;25147;52.142;9.960;2024-03-02T11:57:05;13.00;;;9.10;;
39442;SDS011;25147;52.142;9.960;2024-03-02T11:59:33;10.23;;;8.00;;
39442;SDS011;25147;52.142;9.960;2024-03-02T12:02:01;11.90;;;8.25;;
39442;SDS011;25147;52.142;9.960;2024-03-02T12:04:28;11.52;;;7.95;;
39442;SDS011;25147;52.142;9.960;2024-03-02T12:06:57;10.98;;;8.27;;
39442;SDS011;25147;52.142;9.960;2024-03-02T12:09:26;11.60;;;8.82;;
39442;SDS011;25147;52.142;9.960;2024-03-02T12:12:03;11.20;;;9.32;;
39442;SDS011;25147;52.142;9.960;2024-03-02T12:14:31;10.18;;;8.85;;
39442;SDS011;25147;52.142;9.960;2024-03-02T12:16:59;11.13;;;8.27;;
39442;SDS011;25147;52.142;9.960;2024-03-02T12:19:28;9.05;;;8.13;;
39442;SDS011;25147;52.142;9.960;2024-03-02T12:21:56;11.80;;;8.73;;
39442;SDS011;25147;52.142;9.960;2024-03-02T12:24:24;11.95;;;8.88;;
39442;SDS011;25147;52.142;9.960;2024-03-02T12:26:52;11.13;;;8.77;;
39442;SDS011;25147;52.142;9.960;2024-03-02T12:29:20;9.50;;;8.18;;
39442;SDS011;25147;52.142;9.960;2024-03-02T12:31:47;10.30;;;8.38;;
39442;SDS011;25147;52.142;9.960;2024-03-02T12:34:17;10.23;;;8.20;;
39442;SDS011;25147;52.142;9.960;2024-03-02T12:36:48;10.77;;;7.82;;
39442;SDS011;25147;52.142;9.960;2024-03-02T12:39:18;10.25;;;8.13;;
39442;SDS011;25147;52.142;9.960;2024-03-02T12:41:45;11.10;;;8.20;;
39442;SDS011;25147;52.142;9.960;2024-03-02T12:44:12;9.40;;;7.80;;
39442;SDS011;25147;52.142;9.960;2024-03-02T12:46:39;12.50;;;8.05;;
39442;SDS011;25147;52.142;9.960;2024-03-02T12:49:07;10.50;;;8.05;;
39442;SDS011;25147;52.142;9.960;2024-03-02T12:51:39;11.48;;;8.00;;
39442;SDS011;25147;52.142;9.960;2024-03-02T12:54:07;8.98;;;7.80;;
39442;SDS011;25147;52.142;9.960;2024-03-02T12:56:35;10.05;;;7.95;;
39442;SDS011;25147;52.142;9.960;2024-03-02T12:59:03;10.07;;;7.32;;
39442;SDS011;25147;52.142;9.960;2024-03-02T13:01:30;8.95;;;7.72;;
39442;SDS011;25147;52.142;9.960;2024-03-02T13:03:58;9.48;;;7.38;;
39442;SDS011;25147;52.142;9.960;2024-03-02T13:06:25;10.73;;;7.72;;
39442;SDS011;25147;52.142;9.960;2024-03-02T13:08:55;8.93;;;7.57;;
39442;SDS011;25147;52.142;9.960;2024-03-02T13:11:22;8.55;;;7.47;;
39442;SDS011;25147;52.142;9.960;2024-03-02T13:13:50;12.05;;;8.68;;
39442;SDS011;25147;52.142;9.960;2024-03-02T13:16:17;8.70;;;6.55;;
39442;SDS011;25147;52.142;9.960;2024-03-02T13:18:47;7.75;;;6.10;;
39442;SDS011;25147;52.142;9.960;2024-03-02T13:21:15;6.75;;;6.05;;
39442;SDS011;25147;52.142;9.960;2024-03-02T13:23:42;6.95;;;5.80;;
39442;SDS011;25147;52.142;9.960;2024-03-02T13:26:10;7.20;;;5.78;;
39442;SDS011;25147;52.142;9.960;2024-03-02T13:28:38;9.95;;;6.65;;
39442;SDS011;25147;52.142;9.960;2024-03-02T13:31:05;7.75;;;6.72;;
39442;SDS011;25147;52.142;9.960;2024-03-02T13:33:32;7.90;;;6.10;;
39442;SDS011;25147;52.142;9.960;2024-03-02T13:35:59;9.75;;;6.45;;
39442;SDS011;25147;52.142;9.960;2024-03-02T13:38:26;7.05;;;6.03;;
39442;SDS011;25147;52.142;9.960;2024-03-02T13:40:53;8.32;;;5.93;;
39442;SDS011;25147;52.142;9.960;2024-03-02T13:43:22;6.68;;;6.00;;
39442;SDS011;25147;52.142;9.960;2024-03-02T13:45:49;8.50;;;6.15;;
39442;SDS011;25147;52.142;9.960;2024-03-02T13:48:17;7.68;;;5.65;;
39442;SDS011;25147;52.142;9.960;2024-03-02T13:50:44;8.38;;;5.88;;
39442;SDS011;25147;52.142;9.960;2024-03-02T13:53:11;8.23;;;6.88;;
39442;SDS011;25147;52.142;9.960;2024-03-02T13:55:38;7.38;;;6.15;;
39442;SDS011;25147;52.142;9.960;2024-03-02T13:58:08;6.47;;;5.32;;
39442;SDS011;25147;52.142;9.960;2024-03-02T14:00:38;6.00;;;5.03;;
39442;SDS011;25147;52.142;9.960;2024-03-02T14:03:09;6.82;;;5.50;;
39442;SDS011;25147;52.142;9.960;2024-03-02T14:05:36;6.88;;;5.60;;
39442;SDS011;25147;52.142;9.960;2024-03-02T14:08:03;6.63;;;5.43;;
39442;SDS011;25147;52.142;9.960;2024-03-02T14:10:36;6.47;;;5.68;;
39442;SDS011;25147;52.142;9.960;2024-03-02T14:13:08;7.65;;;5.82;;
39442;SDS011;25147;52.142;9.960;2024-03-02T14:15:34;6.95;;;5.90;;
39442;SDS011;25147;52.142;9.960;2024-03-02T14:18:06;8.23;;;5.78;;
39442;SDS011;25147;52.142;9.960;2024-03-02T14:20:35;7.47;;;5.60;;
39442;SDS011;25147;52.142;9.960;2024-03-02T14:23:03;5.97;;;4.93;;
39442;SDS011;25147;52.142;9.960;2024-03-02T14:25:30;6.95;;;5.78;;
39442;SDS011;25147;52.142;9.960;2024-03-02T14:27:59;6.28;;;5.10;;
39442;SDS011;25147;52.142;9.960;2024-03-02T14:30:25;6.95;;;5.13;;